Time;durP1;ratioP1;P1;durP2;ratioP2;P2;SDS_P1;SDS_P2;PMS_P1;PMS_P2;Temp;Humidity;BMP_temperature;BMP_pressure;BME280_temperature;BME280_humidity;BME280_pressure;Samples;Min_cycle;Max_cycle;Signal;HPM_P1;HPM_P2
2022/02/21 00:02:17;;;;;;;;;;;18.90;58.60;;;;;;5038764;28;1342;-70
2022/02/21 00:04:43;;;;;;;;;;;18.80;58.60;;;;;;5037174;28;1292;-69
2022/02/21 00:07:08;;;;;;;;;;;18.90;58.60;;;;;;5038724;28;1240;-70
2022/02/21 00:09:33;;;;;;;;;;;18.80;58.60;;;;;;5050344;28;1359;-69
2022/02/21 00:11:59;;;;;;;;;;;18.90;58.70;;;;;;5034182;28;1953;-70
2022/02/21 00:14:24;;;;;;;;;;;18.80;58.70;;;;;;5035812;28;1374;-71
2022/02/21 00:16:50;;;;;;;;;;;18.80;58.70;;;;;;5028736;28;1356;-70
2022/02/21 00:19:15;;;;;;;;;;;18.80;58.70;;;;;;5029967;28;1256;-69
2022/02/21 00:21:40;;;;;;;;;;;18.80;58.70;;;;;;5035187;28;1317;-70
2022/02/21 00:24:06;;;;;;;;;;;18.80;58.80;;;;;;5035322;28;1131;-69
2022/02/21 00:26:31;;;;;;;;;;;18.80;58.80;;;;;;5034067;28;1352;-70
2022/02/21 00:28:57;;;;;;;;;;;18.80;58.80;;;;;;5035020;28;1279;-70
2022/02/21 00:31:22;;;;;;;;;;;18.80;58.80;;;;;;5034491;28;1953;-70
2022/02/21 00:33:48;;;;;;;;;;;18.80;58.80;;;;;;5033582;28;1735;-70
2022/02/21 00:36:13;;;;;;;;;;;18.80;58.90;;;;;;5031102;28;1642;-70
2022/02/21 00:38:39;;;;;;;;;;;18.80;58.80;;;;;;5027310;28;1373;-70
2022/02/21 00:41:04;;;;;;;;;;;18.80;58.90;;;;;;5034344;28;1675;-69
2022/02/21 00:43:30;;;;;;;;;;;18.80;58.90;;;;;;5033855;28;1654;-70
2022/02/21 00:45:55;;;;;;;;;;;18.80;58.90;;;;;;5016655;28;1639;-70
2022/02/21 00:48:20;;;;;;;;;;;18.70;58.90;;;;;;5033931;28;1352;-70
2022/02/21 00:50:46;;;;;;;;;;;18.70;58.90;;;;;;5015755;28;1894;-70
2022/02/21 00:53:11;;;;;;;;;;;18.70;58.90;;;;;;5034984;28;1386;-70
2022/02/21 00:55:37;;;;;;;;;;;18.70;58.90;;;;;;5034389;28;1842;-70
2022/02/21 00:58:02;;;;;;;;;;;18.70;58.90;;;;;;5033513;28;1586;-70
2022/02/21 01:00:28;;;;;;;;;;;18.70;59.50;;;;;;5033459;28;1671;-71
2022/02/21 01:02:53;;;;;;;;;;;18.70;59.00;;;;;;5032941;28;1676;-71
2022/02/21 01:05:19;;;;;;;;;;;18.70;59.00;;;;;;5034077;28;1396;-71
2022/02/21 01:07:44;;;;;;;;;;;18.70;59.00;;;;;;5034101;28;1660;-71
2022/02/21 01:10:09;;;;;;;;;;;18.70;59.00;;;;;;5033719;28;1442;-70
2022/02/21 01:12:35;;;;;;;;;;;18.70;59.00;;;;;;5034002;28;1973;-70
2022/02/21 01:15:00;;;;;;;;;;;18.70;59.10;;;;;;5033126;28;1538;-71
2022/02/21 01:17:27;;;;;;;;;;;18.70;59.00;;;;;;5033757;28;1570;-71
2022/02/21 01:19:52;;;;;;;;;;;18.70;59.00;;;;;;5032833;28;1340;-71
2022/02/21 01:22:18;;;;;;;;;;;18.70;59.10;;;;;;5032458;28;1376;-71
2022/02/21 01:24:43;;;;;;;;;;;18.70;59.10;;;;;;5034184;28;1490;-71
2022/02/21 01:27:09;;;;;;;;;;;18.70;59.10;;;;;;5033822;28;776;-71
2022/02/21 01:29:35;;;;;;;;;;;18.70;59.10;;;;;;5026551;28;1426;-70
2022/02/21 01:32:00;;;;;;;;;;;18.60;59.10;;;;;;5026869;28;1894;-70
2022/02/21 01:34:26;;;;;;;;;;;18.70;59.10;;;;;;5028213;28;1783;-71
2022/02/21 01:36:54;;;;;;;;;;;18.60;59.10;;;;;;5026475;28;1622;-71
2022/02/21 01:39:20;;;;;;;;;;;18.70;59.10;;;;;;5033114;28;1343;-71
2022/02/21 01:41:45;;;;;;;;;;;18.70;59.20;;;;;;5032549;28;1552;-71
2022/02/21 01:44:12;;;;;;;;;;;18.60;59.10;;;;;;5033658;28;1482;-71
2022/02/21 01:46:37;;;;;;;;;;;18.60;59.20;;;;;;5033103;28;1149;-71
2022/02/21 01:49:03;;;;;;;;;;;18.60;59.10;;;;;;5031288;28;1737;-71
2022/02/21 01:51:29;;;;;;;;;;;18.60;59.20;;;;;;5032104;28;1895;-71
2022/02/21 01:53:55;;;;;;;;;;;18.70;59.20;;;;;;5019077;28;1626;-71
2022/02/21 01:56:21;;;;;;;;;;;18.60;59.20;;;;;;5031973;28;1625;-71
2022/02/21 01:58:46;;;;;;;;;;;18.60;59.20;;;;;;5032900;28;1857;-71
2022/02/21 02:01:12;;;;;;;;;;;18.60;59.20;;;;;;5055067;22;3742;-69
2022/02/21 02:03:38;;;;;;;;;;;18.60;59.20;;;;;;5046315;28;1644;-69
2022/02/21 02:06:04;;;;;;;;;;;18.60;59.20;;;;;;5041291;28;1539;-68
2022/02/21 02:08:29;;;;;;;;;;;18.60;59.30;;;;;;5034895;28;1683;-69
2022/02/21 02:10:57;;;;;;;;;;;18.60;59.20;;;;;;5035253;28;1918;-69
2022/02/21 02:13:23;;;;;;;;;;;18.60;59.30;;;;;;5051678;28;1552;-69
2022/02/21 02:15:50;;;;;;;;;;;18.60;59.30;;;;;;5052920;28;1346;-69
2022/02/21 02:18:16;;;;;;;;;;;18.60;59.30;;;;;;5051131;28;1581;-68
2022/02/21 02:20:41;;;;;;;;;;;18.60;59.30;;;;;;5052431;28;1343;-69
2022/02/21 02:23:07;;;;;;;;;;;18.60;59.30;;;;;;5051279;28;1222;-68
2022/02/21 02:25:33;;;;;;;;;;;18.60;59.30;;;;;;5034836;28;1625;-69
2022/02/21 02:27:59;;;;;;;;;;;18.60;59.30;;;;;;5052713;28;1641;-68
2022/02/21 02:30:24;;;;;;;;;;;18.60;59.30;;;;;;5051349;28;1515;-68
2022/02/21 02:32:51;;;;;;;;;;;18.60;59.30;;;;;;5037639;28;1905;-68
2022/02/21 02:35:16;;;;;;;;;;;18.60;59.30;;;;;;5051361;28;1263;-69
2022/02/21 02:37:42;;;;;;;;;;;18.60;59.40;;;;;;5050756;28;1363;-69
2022/02/21 02:40:07;;;;;;;;;;;18.60;59.30;;;;;;5051256;28;1333;-69
2022/02/21 02:42:33;;;;;;;;;;;18.60;59.40;;;;;;5037396;28;2033;-68
2022/02/21 02:44:58;;;;;;;;;;;18.60;59.40;;;;;;5051255;28;1572;-69
2022/02/21 02:47:24;;;;;;;;;;;18.60;59.40;;;;;;5052178;28;1606;-68
2022/02/21 02:49:49;;;;;;;;;;;18.60;60.00;;;;;;5045141;28;1316;-68
2022/02/21 02:52:15;;;;;;;;;;;18.60;59.40;;;;;;5044133;28;1955;-68
2022/02/21 02:54:40;;;;;;;;;;;18.60;59.50;;;;;;5044198;28;1129;-69
2022/02/21 02:57:05;;;;;;;;;;;18.60;59.40;;;;;;5041823;28;1687;-68
2022/02/21 02:59:31;;;;;;;;;;;18.60;59.40;;;;;;5041016;28;1219;-69
2022/02/21 03:01:56;;;;;;;;;;;18.50;59.40;;;;;;5042111;28;1324;-70
2022/02/21 03:04:22;;;;;;;;;;;18.50;59.50;;;;;;5023737;28;1371;-70
2022/02/21 03:06:47;;;;;;;;;;;18.50;59.50;;;;;;5052245;28;1731;-70
2022/02/21 03:09:13;;;;;;;;;;;18.50;59.40;;;;;;5043150;28;1594;-71
2022/02/21 03:11:38;;;;;;;;;;;18.50;59.40;;;;;;5044455;28;1961;-70
2022/02/21 03:14:03;;;;;;;;;;;18.50;59.50;;;;;;5042749;28;1219;-70
2022/02/21 03:16:29;;;;;;;;;;;18.50;59.50;;;;;;5041884;28;1401;-70
2022/02/21 03:18:54;;;;;;;;;;;18.50;59.50;;;;;;5040769;28;1452;-72
2022/02/21 03:21:20;;;;;;;;;;;18.50;59.50;;;;;;5043241;28;1612;-68
2022/02/21 03:23:45;;;;;;;;;;;18.50;59.50;;;;;;5041107;28;1254;-68
2022/02/21 03:26:11;;;;;;;;;;;18.50;59.50;;;;;;5052602;28;1626;-68
2022/02/21 03:28:36;;;;;;;;;;;18.50;59.50;;;;;;5041515;28;1202;-66
2022/02/21 03:31:02;;;;;;;;;;;18.50;59.50;;;;;;5044285;28;1922;-68
2022/02/21 03:33:27;;;;;;;;;;;18.50;59.50;;;;;;5038675;28;1412;-69
2022/02/21 03:35:53;;;;;;;;;;;18.50;59.50;;;;;;5041566;28;1150;-70
2022/02/21 03:38:18;;;;;;;;;;;18.50;59.80;;;;;;5022893;28;1324;-69
2022/02/21 03:40:44;;;;;;;;;;;18.50;59.50;;;;;;5041781;28;1309;-70
2022/02/21 03:43:09;;;;;;;;;;;18.50;59.60;;;;;;5042951;28;1303;-68
2022/02/21 03:45:35;;;;;;;;;;;18.50;59.60;;;;;;5047014;28;1423;-69
2022/02/21 03:48:00;;;;;;;;;;;18.50;59.60;;;;;;5043711;28;1540;-68
2022/02/21 03:50:26;;;;;;;;;;;18.50;59.60;;;;;;5042448;28;1341;-68
2022/02/21 03:52:51;;;;;;;;;;;18.50;59.60;;;;;;5044886;28;1910;-68
2022/02/21 03:55:17;;;;;;;;;;;18.50;59.60;;;;;;5046746;28;1388;-69
2022/02/21 03:57:42;;;;;;;;;;;18.50;59.60;;;;;;5044362;28;1269;-67
2022/02/21 04:00:10;;;;;;;;;;;18.50;59.60;;;;;;5044140;28;1310;-69
2022/02/21 04:02:35;;;;;;;;;;;18.50;59.60;;;;;;5050026;28;1947;-69
2022/02/21 04:05:01;;;;;;;;;;;18.50;59.60;;;;;;5048327;28;1331;-68
2022/02/21 04:07:29;;;;;;;;;;;18.50;59.60;;;;;;5045693;28;1254;-70
2022/02/21 04:09:55;;;;;;;;;;;18.50;59.60;;;;;;5045634;28;1689;-70
2022/02/21 04:12:20;;;;;;;;;;;18.50;59.70;;;;;;5042637;28;1906;-69
2022/02/21 04:14:46;;;;;;;;;;;18.50;59.70;;;;;;5047487;28;1381;-68
2022/02/21 04:17:11;;;;;;;;;;;18.50;59.70;;;;;;5045265;28;1588;-69
2022/02/21 04:19:37;;;;;;;;;;;18.50;59.70;;;;;;5053189;28;1569;-69
2022/02/21 04:22:02;;;;;;;;;;;18.40;59.70;;;;;;5049374;28;2031;-68
2022/02/21 04:24:28;;;;;;;;;;;18.50;59.70;;;;;;5042401;28;1507;-67
2022/02/21 04:26:53;;;;;;;;;;;18.40;59.70;;;;;;5043323;28;1370;-68
2022/02/21 04:29:19;;;;;;;;;;;18.50;59.70;;;;;;5043243;28;1330;-69
2022/02/21 04:31:44;;;;;;;;;;;18.40;59.70;;;;;;5043041;28;1898;-68
2022/02/21 04:34:09;;;;;;;;;;;18.40;59.70;;;;;;5044856;28;1492;-69
2022/02/21 04:36:36;;;;;;;;;;;18.40;59.70;;;;;;5047361;28;1235;-68
2022/02/21 04:39:01;;;;;;;;;;;18.40;59.70;;;;;;5043108;28;1439;-69
2022/02/21 04:41:27;;;;;;;;;;;18.40;59.70;;;;;;5042986;28;1388;-67
2022/02/21 04:43:53;;;;;;;;;;;18.40;59.70;;;;;;5044405;28;1356;-67
2022/02/21 04:46:19;;;;;;;;;;;18.40;59.70;;;;;;5042607;28;1337;-67
2022/02/21 04:48:45;;;;;;;;;;;18.40;59.70;;;;;;5043714;28;1740;-67
2022/02/21 04:51:11;;;;;;;;;;;18.40;59.70;;;;;;5041113;28;1890;-68
2022/02/21 04:53:36;;;;;;;;;;;18.40;59.70;;;;;;5043590;28;1344;-67
2022/02/21 04:56:01;;;;;;;;;;;18.40;59.70;;;;;;5044007;28;1385;-68
2022/02/21 04:58:27;;;;;;;;;;;18.40;59.70;;;;;;5044496;28;1362;-69
2022/02/21 05:00:52;;;;;;;;;;;18.40;59.70;;;;;;5040804;28;1370;-68
2022/02/21 05:03:18;;;;;;;;;;;18.40;59.70;;;;;;5050706;28;1759;-68
2022/02/21 05:05:44;;;;;;;;;;;18.40;59.70;;;;;;5054750;28;1356;-68
2022/02/21 05:08:09;;;;;;;;;;;18.40;59.70;;;;;;5054082;28;1435;-68
2022/02/21 05:10:35;;;;;;;;;;;18.40;59.70;;;;;;5053152;28;1681;-69
2022/02/21 05:13:00;;;;;;;;;;;18.40;59.70;;;;;;5054090;28;1945;-67
2022/02/21 05:15:26;;;;;;;;;;;18.40;59.80;;;;;;5054328;28;1603;-68
2022/02/21 05:17:51;;;;;;;;;;;18.40;59.80;;;;;;5043114;28;1632;-69
2022/02/21 05:20:17;;;;;;;;;;;18.40;59.80;;;;;;5053323;28;1361;-69
2022/02/21 05:22:42;;;;;;;;;;;18.40;59.80;;;;;;5053676;28;1430;-68
2022/02/21 05:25:08;;;;;;;;;;;18.40;59.80;;;;;;5054386;28;1656;-69
2022/02/21 05:27:34;;;;;;;;;;;18.30;59.80;;;;;;5036214;28;1428;-68
2022/02/21 05:30:00;;;;;;;;;;;18.40;59.80;;;;;;5051964;28;1376;-68
2022/02/21 05:32:25;;;;;;;;;;;18.40;59.80;;;;;;5052597;28;1961;-68
2022/02/21 05:34:51;;;;;;;;;;;18.40;59.80;;;;;;5053689;28;1636;-68
2022/02/21 05:37:16;;;;;;;;;;;18.40;59.80;;;;;;5035754;28;1648;-68
2022/02/21 05:39:42;;;;;;;;;;;18.40;59.80;;;;;;5043193;28;1344;-69
2022/02/21 05:42:07;;;;;;;;;;;18.40;59.80;;;;;;5035819;28;1416;-68
2022/02/21 05:44:33;;;;;;;;;;;18.40;59.80;;;;;;5035760;28;1716;-69
2022/02/21 05:46:58;;;;;;;;;;;18.40;59.90;;;;;;5052252;28;1675;-69
2022/02/21 05:49:24;;;;;;;;;;;18.40;59.90;;;;;;5052016;28;1584;-68
2022/02/21 05:51:49;;;;;;;;;;;18.40;59.80;;;;;;5053320;28;1886;-69
2022/02/21 05:54:14;;;;;;;;;;;18.40;59.90;;;;;;5051949;28;1577;-69
2022/02/21 05:56:40;;;;;;;;;;;18.40;59.90;;;;;;5053527;28;1634;-68
2022/02/21 05:59:05;;;;;;;;;;;18.40;59.90;;;;;;5052432;28;1316;-68
2022/02/21 06:01:31;;;;;;;;;;;18.40;59.90;;;;;;5052897;28;1460;-70
2022/02/21 06:03:56;;;;;;;;;;;18.40;59.90;;;;;;5053293;28;1333;-69
2022/02/21 06:06:22;;;;;;;;;;;18.40;59.90;;;;;;5052760;28;1437;-69
2022/02/21 06:08:47;;;;;;;;;;;18.40;59.90;;;;;;5052014;28;1639;-68
2022/02/21 06:11:13;;;;;;;;;;;18.40;59.90;;;;;;5053019;28;1971;-70
2022/02/21 06:13:38;;;;;;;;;;;18.40;59.80;;;;;;5052878;28;1629;-69
2022/02/21 06:16:04;;;;;;;;;;;18.40;59.80;;;;;;5053020;28;1371;-70
2022/02/21 06:18:29;;;;;;;;;;;18.40;59.70;;;;;;5050939;28;1248;-70
2022/02/21 06:20:55;;;;;;;;;;;18.50;59.70;;;;;;5053028;28;1493;-70
2022/02/21 06:23:20;;;;;;;;;;;18.50;59.60;;;;;;5043212;28;1757;-68
2022/02/21 06:25:46;;;;;;;;;;;18.50;59.50;;;;;;5042507;28;1877;-70
2022/02/21 06:28:11;;;;;;;;;;;18.60;59.50;;;;;;5054436;28;1794;-67
2022/02/21 06:30:37;;;;;;;;;;;18.60;59.30;;;;;;5068218;28;1397;-68
2022/02/21 06:33:02;;;;;;;;;;;18.60;59.20;;;;;;5051738;28;1965;-68
2022/02/21 06:35:27;;;;;;;;;;;18.60;59.10;;;;;;5052498;28;1384;-66
2022/02/21 06:37:54;;;;;;;;;;;18.70;59.10;;;;;;5052511;28;1364;-68
2022/02/21 06:40:20;;;;;;;;;;;18.70;59.00;;;;;;5050343;28;1619;-67
2022/02/21 06:42:46;;;;;;;;;;;18.70;58.90;;;;;;5050871;28;1360;-67
2022/02/21 06:45:11;;;;;;;;;;;18.80;58.90;;;;;;5052724;28;1676;-67
2022/02/21 06:47:37;;;;;;;;;;;18.80;58.80;;;;;;5052752;28;1579;-67
2022/02/21 06:50:04;;;;;;;;;;;18.80;58.80;;;;;;5051200;28;1189;-69
2022/02/21 06:52:30;;;;;;;;;;;18.80;59.30;;;;;;5050621;28;1951;-69
2022/02/21 06:54:55;;;;;;;;;;;18.80;58.60;;;;;;5034313;28;1591;-69
2022/02/21 06:57:22;;;;;;;;;;;18.80;58.60;;;;;;5052117;28;1365;-68
2022/02/21 06:59:47;;;;;;;;;;;18.90;58.60;;;;;;5051295;28;1568;-69
2022/02/21 07:02:12;;;;;;;;;;;18.90;58.50;;;;;;5051836;28;1657;-71
2022/02/21 07:04:38;;;;;;;;;;;18.90;58.50;;;;;;5051855;28;1246;-68
2022/02/21 07:07:03;;;;;;;;;;;18.90;58.40;;;;;;5038501;28;2023;-68
2022/02/21 07:09:29;;;;;;;;;;;18.90;58.40;;;;;;5044517;28;1952;-69
2022/02/21 07:11:54;;;;;;;;;;;18.90;58.40;;;;;;5052175;28;1976;-68
2022/02/21 07:14:22;;;;;;;;;;;18.90;58.30;;;;;;5057486;28;1492;-68
2022/02/21 07:16:52;;;;;;;;;;;18.90;58.30;;;;;;5061256;28;1593;-69
2022/02/21 07:19:17;;;;;;;;;;;18.90;58.30;;;;;;5053978;28;1598;-69
2022/02/21 07:21:43;;;;;;;;;;;18.90;58.30;;;;;;5056317;28;1676;-69
2022/02/21 07:24:09;;;;;;;;;;;18.90;58.30;;;;;;5055433;28;1680;-70
2022/02/21 07:26:34;;;;;;;;;;;18.90;58.20;;;;;;5056357;28;1565;-68
2022/02/21 07:29:00;;;;;;;;;;;19.00;58.30;;;;;;5056545;28;1596;-68
2022/02/21 07:31:25;;;;;;;;;;;19.00;58.30;;;;;;5054811;28;1969;-68
2022/02/21 07:33:50;;;;;;;;;;;19.00;58.20;;;;;;5051122;28;2062;-68
2022/02/21 07:36:16;;;;;;;;;;;19.00;58.20;;;;;;5054780;28;1555;-66
2022/02/21 07:38:41;;;;;;;;;;;19.00;58.30;;;;;;5055577;28;1649;-68
2022/02/21 07:41:07;;;;;;;;;;;19.00;58.20;;;;;;5058078;28;1622;-67
2022/02/21 07:43:33;;;;;;;;;;;19.00;58.20;;;;;;5055064;28;1637;-68
2022/02/21 07:45:58;;;;;;;;;;;19.00;58.20;;;;;;5054918;28;1915;-67
2022/02/21 07:48:23;;;;;;;;;;;19.00;58.20;;;;;;5054024;28;1565;-67
2022/02/21 07:50:53;;;;;;;;;;;19.00;58.10;;;;;;5055687;28;1591;-68
2022/02/21 07:53:18;;;;;;;;;;;19.10;58.10;;;;;;5054354;28;1898;-67
2022/02/21 07:55:44;;;;;;;;;;;19.10;58.00;;;;;;5051475;28;1984;-69
2022/02/21 07:58:09;;;;;;;;;;;19.20;57.90;;;;;;5052551;28;1506;-69
2022/02/21 08:00:35;;;;;;;;;;;19.30;57.70;;;;;;5069887;23;2168;-72
2022/02/21 08:03:01;;;;;;;;;;;19.50;57.70;;;;;;5051614;28;2123;-72
2022/02/21 08:05:26;;;;;;;;;;;19.60;57.40;;;;;;5043078;28;1677;-72
2022/02/21 08:07:52;;;;;;;;;;;19.70;57.20;;;;;;5051973;28;2010;-71
2022/02/21 08:10:17;;;;;;;;;;;19.80;57.00;;;;;;5052369;28;1908;-71
2022/02/21 08:12:43;;;;;;;;;;;19.90;56.70;;;;;;5048792;28;1914;-70
2022/02/21 08:15:08;;;;;;;;;;;20.00;56.40;;;;;;5047580;28;1565;-69
2022/02/21 08:17:40;;;;;;;;;;;20.20;56.20;;;;;;5048154;28;1358;-71
2022/02/21 08:20:06;;;;;;;;;;;20.20;55.90;;;;;;5033813;28;1343;-69
2022/02/21 08:22:31;;;;;;;;;;;20.30;55.70;;;;;;5032624;28;1373;-71
2022/02/21 08:24:57;;;;;;;;;;;20.40;55.50;;;;;;5033828;28;1412;-70
2022/02/21 08:27:22;;;;;;;;;;;20.50;55.40;;;;;;5032841;28;1701;-71
2022/02/21 08:29:48;;;;;;;;;;;20.50;55.20;;;;;;5040962;28;1389;-70
2022/02/21 08:32:13;;;;;;;;;;;20.60;55.10;;;;;;5038661;28;1975;-70
2022/02/21 08:34:40;;;;;;;;;;;20.60;54.90;;;;;;5041295;28;1421;-70
2022/02/21 08:37:06;;;;;;;;;;;20.60;54.80;;;;;;5037522;28;1568;-71
2022/02/21 08:39:32;;;;;;;;;;;20.70;54.80;;;;;;5031844;28;1586;-70
2022/02/21 08:41:57;;;;;;;;;;;20.70;54.70;;;;;;5033703;28;1663;-71
2022/02/21 08:44:25;;;;;;;;;;;20.70;54.70;;;;;;5032248;28;1548;-70
2022/02/21 08:46:50;;;;;;;;;;;20.80;54.70;;;;;;5048916;28;1356;-71
2022/02/21 08:49:16;;;;;;;;;;;20.80;54.70;;;;;;5035299;28;1367;-71
2022/02/21 08:51:41;;;;;;;;;;;20.80;54.70;;;;;;5038287;28;1973;-71
2022/02/21 08:54:09;;;;;;;;;;;20.80;54.80;;;;;;5031978;28;1663;-71
2022/02/21 08:56:34;;;;;;;;;;;20.80;54.70;;;;;;5033256;28;1648;-70
2022/02/21 08:59:00;;;;;;;;;;;20.80;54.90;;;;;;5033016;28;1644;-71
2022/02/21 09:01:25;;;;;;;;;;;20.80;54.80;;;;;;4997825;28;1000119;-71
2022/02/21 09:03:50;;;;;;;;;;;20.80;54.80;;;;;;5042492;28;1137;-71
2022/02/21 09:06:16;;;;;;;;;;;20.80;54.80;;;;;;5038451;28;1429;-70
2022/02/21 09:08:42;;;;;;;;;;;20.80;54.80;;;;;;5033429;28;1638;-71
2022/02/21 09:11:07;;;;;;;;;;;20.70;54.70;;;;;;5034202;28;1906;-72
2022/02/21 09:13:32;;;;;;;;;;;20.70;54.70;;;;;;5033954;28;1571;-72
2022/02/21 09:15:58;;;;;;;;;;;20.70;54.70;;;;;;5033961;28;1360;-72
2022/02/21 09:18:23;;;;;;;;;;;20.70;54.80;;;;;;5034608;28;1527;-73
2022/02/21 09:20:50;;;;;;;;;;;20.70;54.80;;;;;;5051678;28;1403;-72
2022/02/21 09:23:15;;;;;;;;;;;20.70;54.90;;;;;;5033784;28;1574;-72
2022/02/21 09:25:41;;;;;;;;;;;20.60;54.90;;;;;;5034203;28;1627;-72
2022/02/21 09:28:06;;;;;;;;;;;20.60;55.00;;;;;;5032403;28;1214;-73
2022/02/21 09:30:31;;;;;;;;;;;20.60;55.00;;;;;;5031577;28;1608;-72
2022/02/21 09:32:57;;;;;;;;;;;20.60;55.10;;;;;;5040177;28;1964;-72
2022/02/21 09:35:24;;;;;;;;;;;20.60;55.10;;;;;;5040351;28;1375;-73
2022/02/21 09:37:49;;;;;;;;;;;20.60;55.20;;;;;;5053020;28;1705;-71
2022/02/21 09:40:15;;;;;;;;;;;20.60;55.30;;;;;;5053640;28;1474;-73
2022/02/21 09:42:42;;;;;;;;;;;20.50;55.30;;;;;;5044543;28;1456;-72
2022/02/21 09:45:08;;;;;;;;;;;20.50;55.30;;;;;;5027627;28;1609;-72
2022/02/21 09:47:33;;;;;;;;;;;20.50;55.40;;;;;;5033607;28;1589;-71
2022/02/21 09:49:59;;;;;;;;;;;20.50;55.50;;;;;;5033054;28;1670;-72
2022/02/21 09:52:25;;;;;;;;;;;20.50;55.50;;;;;;5033231;28;1902;-72
2022/02/21 09:54:50;;;;;;;;;;;20.50;55.60;;;;;;5032687;28;1505;-71
2022/02/21 09:57:15;;;;;;;;;;;20.40;55.60;;;;;;5033064;28;1620;-71
2022/02/21 09:59:41;;;;;;;;;;;20.40;55.60;;;;;;5032774;28;1463;-72
2022/02/21 10:02:07;;;;;;;;;;;20.40;55.60;;;;;;5040890;28;1369;-69
2022/02/21 10:04:32;;;;;;;;;;;20.40;55.70;;;;;;5038393;28;1736;-71
2022/02/21 10:06:58;;;;;;;;;;;20.40;55.70;;;;;;5033242;28;1355;-72
2022/02/21 10:09:24;;;;;;;;;;;20.40;55.80;;;;;;5033249;28;1789;-68
2022/02/21 10:11:49;;;;;;;;;;;20.40;55.80;;;;;;5031590;28;1972;-68
2022/02/21 10:14:19;;;;;;;;;;;20.30;55.80;;;;;;5038643;28;1356;-69
2022/02/21 10:16:46;;;;;;;;;;;20.30;55.80;;;;;;5037466;28;1553;-69
2022/02/21 10:19:12;;;;;;;;;;;20.30;55.90;;;;;;5037234;28;1584;-70
2022/02/21 10:21:59;;;;;;;;;;;20.30;55.90;;;;;;5032642;28;1614;-70
2022/02/21 10:24:26;;;;;;;;;;;20.30;55.90;;;;;;5033922;28;1646;-69
2022/02/21 10:26:51;;;;;;;;;;;20.30;56.00;;;;;;5048394;28;1803;-70
2022/02/21 10:29:18;;;;;;;;;;;20.20;56.00;;;;;;5046037;28;1568;-70
2022/02/21 10:31:43;;;;;;;;;;;20.20;56.00;;;;;;5051041;28;1910;-70
2022/02/21 10:34:09;;;;;;;;;;;20.20;56.00;;;;;;5037885;28;1388;-69
2022/02/21 10:36:36;;;;;;;;;;;20.20;56.10;;;;;;5045187;28;2238;-72
2022/02/21 10:39:23;;;;;;;;;;;20.20;56.10;;;;;;5046979;28;2643;-74
2022/02/21 10:41:50;;;;;;;;;;;20.20;56.10;;;;;;5065308;28;1417;-73
2022/02/21 10:44:16;;;;;;;;;;;20.20;56.20;;;;;;5044709;28;1700;-70
2022/02/21 10:46:44;;;;;;;;;;;20.20;56.20;;;;;;5045548;28;1451;-70
2022/02/21 10:49:12;;;;;;;;;;;20.10;56.20;;;;;;5051889;28;1613;-70
2022/02/21 10:51:38;;;;;;;;;;;20.10;56.20;;;;;;5052323;28;1906;-70
2022/02/21 10:54:09;;;;;;;;;;;20.10;56.30;;;;;;5051748;28;1669;-70
2022/02/21 10:56:44;;;;;;;;;;;20.10;56.30;;;;;;5052766;28;1377;-70
2022/02/21 10:59:20;;;;;;;;;;;20.10;56.30;;;;;;5046766;28;1377;-70
2022/02/21 11:01:49;;;;;;;;;;;20.10;56.30;;;;;;5042022;28;1625;-70
2022/02/21 11:04:14;;;;;;;;;;;20.10;56.40;;;;;;5022743;28;1555;-70
2022/02/21 11:06:39;;;;;;;;;;;20.10;56.30;;;;;;5033215;28;1431;-70
2022/02/21 11:09:06;;;;;;;;;;;20.10;56.30;;;;;;5030189;28;1609;-70
2022/02/21 11:11:31;;;;;;;;;;;20.10;56.40;;;;;;5050497;28;1922;-70
2022/02/21 11:13:57;;;;;;;;;;;20.10;56.40;;;;;;5038859;28;1360;-70
2022/02/21 11:16:22;;;;;;;;;;;20.10;56.40;;;;;;5047303;28;1644;-70
2022/02/21 11:18:48;;;;;;;;;;;20.10;56.30;;;;;;5032319;28;1660;-73
2022/02/21 11:21:14;;;;;;;;;;;20.10;56.90;;;;;;5032455;28;1553;-75
2022/02/21 11:23:39;;;;;;;;;;;20.10;56.30;;;;;;5015871;28;2019;-72
2022/02/21 11:26:10;;;;;;;;;;;20.10;56.30;;;;;;5048140;28;1672;-71
2022/02/21 11:28:37;;;;;;;;;;;20.10;56.30;;;;;;5042337;28;1516;-70
2022/02/21 11:31:04;;;;;;;;;;;20.20;56.20;;;;;;5048491;28;1722;-67
2022/02/21 11:33:31;;;;;;;;;;;20.20;56.30;;;;;;5050383;28;1894;-69
2022/02/21 11:36:02;;;;;;;;;;;20.20;56.30;;;;;;5044994;28;2032;-68
2022/02/21 11:38:30;;;;;;;;;;;20.20;56.20;;;;;;5042553;28;1620;-67
2022/02/21 11:40:57;;;;;;;;;;;20.20;56.20;;;;;;5040176;28;1407;-67
2022/02/21 11:43:26;;;;;;;;;;;20.20;56.30;;;;;;5044842;28;1064;-68
2022/02/21 11:45:55;;;;;;;;;;;20.20;56.30;;;;;;5031132;28;2168;-68
2022/02/21 11:48:20;;;;;;;;;;;20.10;56.30;;;;;;5030055;28;1658;-68
2022/02/21 11:50:46;;;;;;;;;;;20.10;56.30;;;;;;5031509;28;1344;-68
2022/02/21 11:53:25;;;;;;;;;;;20.10;56.30;;;;;;5031405;28;1899;-68
2022/02/21 11:55:52;;;;;;;;;;;20.10;56.30;;;;;;5031757;28;1402;-68
2022/02/21 11:58:18;;;;;;;;;;;20.10;56.30;;;;;;5031009;28;1668;-67
2022/02/21 12:00:47;;;;;;;;;;;20.10;56.30;;;;;;5031069;28;1460;-68
2022/02/21 12:03:21;;;;;;;;;;;20.10;56.40;;;;;;5036878;28;1563;-68
2022/02/21 12:05:50;;;;;;;;;;;20.10;56.40;;;;;;5034997;28;1195;-68
2022/02/21 12:08:20;;;;;;;;;;;20.10;56.40;;;;;;5051604;28;1624;-68
2022/02/21 12:11:17;;;;;;;;;;;20.10;56.40;;;;;;5047007;28;1413;-68
2022/02/21 12:13:45;;;;;;;;;;;20.10;56.40;;;;;;5050203;28;1578;-68
2022/02/21 12:16:11;;;;;;;;;;;20.10;56.50;;;;;;5051387;28;1409;-68
2022/02/21 12:18:40;;;;;;;;;;;20.10;56.50;;;;;;5045120;28;1663;-68
2022/02/21 12:21:17;;;;;;;;;;;20.00;56.50;;;;;;5034889;28;1565;-68
2022/02/21 12:23:52;;;;;;;;;;;20.00;56.50;;;;;;5045984;28;1073;-68
2022/02/21 12:26:18;;;;;;;;;;;20.00;56.50;;;;;;5044891;28;1298;-68
2022/02/21 12:28:44;;;;;;;;;;;20.00;56.50;;;;;;5044673;28;1186;-68
2022/02/21 12:31:20;;;;;;;;;;;20.00;56.50;;;;;;5041380;28;1673;-68
2022/02/21 12:33:46;;;;;;;;;;;20.10;56.50;;;;;;5043545;28;1320;-68
2022/02/21 12:36:11;;;;;;;;;;;20.10;56.50;;;;;;5039270;28;1300;-69
2022/02/21 12:38:37;;;;;;;;;;;20.10;56.40;;;;;;5046215;28;1188;-67
2022/02/21 12:41:08;;;;;;;;;;;20.20;56.40;;;;;;5039753;28;1396;-67
2022/02/21 12:43:52;;;;;;;;;;;20.20;56.20;;;;;;5040253;28;1155;-68
2022/02/21 12:46:20;;;;;;;;;;;20.20;56.20;;;;;;5043050;28;1076;-67
2022/02/21 12:48:45;;;;;;;;;;;20.20;56.10;;;;;;5044610;28;1146;-68
2022/02/21 12:51:24;;;;;;;;;;;20.30;56.10;;;;;;5041278;28;1280;-68
2022/02/21 12:53:51;;;;;;;;;;;20.30;56.00;;;;;;5041199;28;1293;-68
2022/02/21 12:56:16;;;;;;;;;;;20.30;56.00;;;;;;5040479;28;1187;-68
2022/02/21 12:58:42;;;;;;;;;;;20.30;55.90;;;;;;5039371;28;1196;-68
2022/02/21 13:01:13;;;;;;;;;;;20.30;55.90;;;;;;5041262;28;1339;-69
2022/02/21 13:03:39;;;;;;;;;;;20.30;55.90;;;;;;5040452;28;1419;-67
2022/02/21 13:06:04;;;;;;;;;;;20.30;55.90;;;;;;5038775;28;1196;-69
2022/02/21 13:08:33;;;;;;;;;;;20.30;56.50;;;;;;5048419;28;2067;-68
2022/02/21 13:11:00;;;;;;;;;;;20.30;55.90;;;;;;5044630;28;2091;-68
2022/02/21 13:13:26;;;;;;;;;;;20.30;55.80;;;;;;5045710;28;1938;-67
2022/02/21 13:15:52;;;;;;;;;;;20.30;55.80;;;;;;5042426;28;1489;-68
2022/02/21 13:18:17;;;;;;;;;;;20.40;55.90;;;;;;5048294;28;2110;-68
2022/02/21 13:20:45;;;;;;;;;;;20.30;55.80;;;;;;5045878;28;1427;-68
2022/02/21 13:23:11;;;;;;;;;;;20.30;55.80;;;;;;5043864;28;1496;-68
2022/02/21 13:25:37;;;;;;;;;;;20.30;55.90;;;;;;5032711;28;1362;-67
2022/02/21 13:28:17;;;;;;;;;;;20.30;55.90;;;;;;5033686;28;1574;-68
2022/02/21 13:30:43;;;;;;;;;;;20.30;55.90;;;;;;5045836;28;1628;-69
2022/02/21 13:33:11;;;;;;;;;;;20.30;55.90;;;;;;5031541;28;1965;-69
2022/02/21 13:35:37;;;;;;;;;;;20.30;55.90;;;;;;5047840;28;2118;-70
2022/02/21 13:38:03;;;;;;;;;;;20.30;56.00;;;;;;5052819;28;1429;-70
2022/02/21 13:40:29;;;;;;;;;;;20.30;56.00;;;;;;5046160;28;1701;-70
2022/02/21 13:42:54;;;;;;;;;;;20.30;56.00;;;;;;5033330;28;1712;-69
2022/02/21 13:45:27;;;;;;;;;;;20.30;56.00;;;;;;5034568;28;1258;-70
2022/02/21 13:48:04;;;;;;;;;;;20.20;56.00;;;;;;5033165;28;1356;-70
2022/02/21 13:50:48;;;;;;;;;;;20.20;56.00;;;;;;5031489;28;1444;-70
2022/02/21 13:53:15;;;;;;;;;;;20.20;56.10;;;;;;5032964;28;1963;-70
2022/02/21 13:55:41;;;;;;;;;;;20.20;56.10;;;;;;5045383;28;1429;-70
2022/02/21 13:58:07;;;;;;;;;;;20.30;56.40;;;;;;5051566;28;1770;-70
2022/02/21 14:00:37;;;;;;;;;;;20.20;56.30;;;;;;5034247;28;1634;-70
2022/02/21 14:03:02;;;;;;;;;;;20.20;56.40;;;;;;5055880;23;2525;-68
2022/02/21 14:05:27;;;;;;;;;;;20.20;56.40;;;;;;5028920;28;1233;-67
2022/02/21 14:07:53;;;;;;;;;;;20.20;56.40;;;;;;5032305;28;1363;-68
2022/02/21 14:10:21;;;;;;;;;;;20.10;56.40;;;;;;5032002;28;1375;-68
2022/02/21 14:12:57;;;;;;;;;;;20.20;56.40;;;;;;5037245;28;1906;-69
2022/02/21 14:15:23;;;;;;;;;;;20.10;56.40;;;;;;5032065;28;1244;-69
2022/02/21 14:17:48;;;;;;;;;;;20.10;56.40;;;;;;5023036;28;1439;-68
2022/02/21 14:20:13;;;;;;;;;;;20.10;56.40;;;;;;5032848;28;1243;-69
2022/02/21 14:22:39;;;;;;;;;;;20.10;56.40;;;;;;5031552;28;1368;-71
2022/02/21 14:25:04;;;;;;;;;;;20.10;56.50;;;;;;5032907;28;1656;-69
2022/02/21 14:27:30;;;;;;;;;;;20.10;56.50;;;;;;5031073;28;1678;-70